createdAt,value
2023-11-15T00:00:19.809Z,92958.63
2023-11-15T00:03:23.236Z,92958.31
2023-11-15T00:06:26.760Z,92940.56
2023-11-15T00:09:31.172Z,92948.72
2023-11-15T00:12:34.625Z,92945.81
2023-11-15T00:15:39.103Z,92943.59
2023-11-15T00:18:43.202Z,92946.91
2023-11-15T00:21:46.843Z,92947.97
2023-11-15T00:24:50.633Z,92950.53
2023-11-15T00:27:54.422Z,92947.50
2023-11-15T00:30:58.403Z,92944.41
2023-11-15T00:34:02.525Z,92947.75
2023-11-15T00:37:06.665Z,92948.75
2023-11-15T00:40:13.011Z,92949.13
2023-11-15T00:43:19.776Z,92948.06
2023-11-15T00:46:23.517Z,92948.16
2023-11-15T00:49:27.319Z,92948.13
2023-11-15T00:52:32.603Z,92948.88
2023-11-15T00:55:36.490Z,92938.44
2023-11-15T00:58:41.250Z,92940.84
2023-11-15T01:01:45.773Z,92940.84
2023-11-15T01:04:52.192Z,92940.41
2023-11-15T01:07:56.104Z,92941.38
2023-11-15T01:11:00.808Z,92947.47
2023-11-15T01:14:05.143Z,92945.13
2023-11-15T01:17:09.153Z,92937.88
2023-11-15T01:20:14.665Z,92938.41
2023-11-15T01:23:18.838Z,92944.28
2023-11-15T01:26:22.968Z,92940.53
2023-11-15T01:29:29.819Z,92934.19
2023-11-15T01:32:33.795Z,92926.50
2023-11-15T01:35:37.966Z,92926.00
2023-11-15T01:38:42.593Z,92927.97
2023-11-15T01:41:52.472Z,92936.19
2023-11-15T01:44:56.228Z,92923.75
2023-11-15T01:47:59.950Z,92924.25
2023-11-15T01:51:06.355Z,92924.06
2023-11-15T01:54:10.417Z,92915.69
2023-11-15T01:57:16.931Z,92911.13
2023-11-15T02:00:21.649Z,92912.91
2023-11-15T02:03:25.413Z,92920.44
2023-11-15T02:06:34.327Z,92917.78
2023-11-15T02:09:39.278Z,92926.75
2023-11-15T02:12:43.508Z,92920.94
2023-11-15T02:15:48.393Z,92917.19
2023-11-15T02:18:52.147Z,92919.91
2023-11-15T02:21:56.292Z,92932.06
2023-11-15T02:25:01.186Z,92931.91
2023-11-15T02:28:05.342Z,92932.44
2023-11-15T02:31:12.667Z,92923.34
2023-11-15T02:34:16.468Z,92926.38
2023-11-15T02:37:20.600Z,92930.13
2023-11-15T02:40:24.426Z,92933.94
2023-11-15T02:43:28.216Z,92931.19
2023-11-15T02:46:32.019Z,92932.97
2023-11-15T02:49:38.844Z,92926.50
2023-11-15T02:52:43.201Z,92918.91
2023-11-15T02:55:48.337Z,92921.84
2023-11-15T02:58:54.013Z,92911.91
2023-11-15T03:01:58.325Z,92909.47
2023-11-15T03:05:02.086Z,92901.19
2023-11-15T03:08:07.668Z,92912.28
2023-11-15T03:11:11.398Z,92900.16
2023-11-15T03:14:15.493Z,92905.50
2023-11-15T03:17:21.209Z,92895.44
2023-11-15T03:20:25.918Z,92891.91
2023-11-15T03:23:29.854Z,92887.25
2023-11-15T03:26:33.755Z,92884.69
2023-11-15T03:29:38.121Z,92887.19
2023-11-15T03:32:41.712Z,92877.94
2023-11-15T03:35:45.513Z,92876.25
2023-11-15T03:38:49.170Z,92874.28
2023-11-15T03:41:52.830Z,92873.50
2023-11-15T03:44:56.986Z,92858.03
2023-11-15T03:48:05.247Z,92856.88
2023-11-15T03:51:09.195Z,92858.34
2023-11-15T03:54:13.095Z,92859.97
2023-11-15T03:57:16.929Z,92860.72
2023-11-15T04:00:24.526Z,92858.53
2023-11-15T04:03:29.112Z,92857.47
2023-11-15T04:06:32.425Z,92852.75
2023-11-15T04:09:36.686Z,92856.97
2023-11-15T04:12:40.040Z,92848.91
2023-11-15T04:15:43.385Z,92840.09
2023-11-15T04:18:46.715Z,92831.06
2023-11-15T04:22:00.622Z,92840.19
2023-11-15T04:25:12.193Z,92840.91
2023-11-15T04:28:16.481Z,92826.16
2023-11-15T04:31:20.038Z,92819.22
2023-11-15T04:34:23.816Z,92834.97
2023-11-15T04:37:27.579Z,92834.56
2023-11-15T04:40:31.460Z,92836.38
2023-11-15T04:43:35.553Z,92841.22
2023-11-15T04:46:39.569Z,92833.50
2023-11-15T04:49:43.221Z,92829.53
2023-11-15T04:52:54.151Z,92822.97
2023-11-15T04:55:59.366Z,92821.22
2023-11-15T04:59:03.705Z,92811.38
2023-11-15T05:02:07.364Z,92814.38
2023-11-15T05:05:12.384Z,92836.25
2023-11-15T05:08:15.914Z,92834.19
2023-11-15T05:11:19.363Z,92833.63
2023-11-15T05:14:24.138Z,92838.25
2023-11-15T05:17:27.958Z,92839.75
2023-11-15T05:20:32.132Z,92838.16
2023-11-15T05:23:35.799Z,92852.19
2023-11-15T05:26:39.797Z,92838.06
2023-11-15T05:29:43.848Z,92838.06
2023-11-15T05:32:47.405Z,92832.00
2023-11-15T05:35:51.217Z,92844.13
2023-11-15T05:38:54.694Z,92823.47
2023-11-15T05:41:58.195Z,92807.38
2023-11-15T05:45:02.025Z,92812.09
2023-11-15T05:48:06.002Z,92806.31
2023-11-15T05:51:09.614Z,92793.16
2023-11-15T05:54:13.145Z,92796.97
2023-11-15T05:57:16.779Z,92789.72
2023-11-15T06:00:23.395Z,92791.78
2023-11-15T06:03:27.528Z,92788.69
2023-11-15T06:06:31.138Z,92809.81
2023-11-15T06:09:34.828Z,92818.44
2023-11-15T06:12:38.473Z,92813.00
2023-11-15T06:15:41.875Z,92811.34
2023-11-15T06:18:46.330Z,92814.38
2023-11-15T06:21:49.807Z,92820.97
2023-11-15T06:24:54.548Z,92802.28
2023-11-15T06:27:58.099Z,92807.97
2023-11-15T06:31:01.464Z,92799.19
2023-11-15T06:34:10.944Z,92797.50
2023-11-15T06:37:18.152Z,92791.47
2023-11-15T06:40:22.401Z,92802.38
2023-11-15T06:43:25.545Z,92819.63
2023-11-15T06:46:29.397Z,92817.81
2023-11-15T06:49:34.063Z,92801.66
2023-11-15T06:52:40.411Z,92816.38
2023-11-15T06:55:43.690Z,92821.72
2023-11-15T06:58:47.260Z,92817.44
2023-11-15T07:01:52.110Z,92831.19
2023-11-15T07:04:56.584Z,92831.25
2023-11-15T07:07:59.945Z,92829.56
2023-11-15T07:11:03.255Z,92820.97
2023-11-15T07:14:12.197Z,92817.06
2023-11-15T07:17:19.883Z,92818.03
2023-11-15T07:20:27.942Z,92827.25
2023-11-15T07:23:31.291Z,92831.41
2023-11-15T07:26:37.396Z,92839.91
2023-11-15T07:29:41.959Z,92832.50
2023-11-15T07:32:45.357Z,92832.84
2023-11-15T07:35:49.603Z,92835.72
2023-11-15T07:38:53.036Z,92842.63
2023-11-15T07:41:56.682Z,92839.00
2023-11-15T07:45:04.008Z,92841.38
2023-11-15T07:48:12.146Z,92849.47
2023-11-15T07:51:15.486Z,92853.16
2023-11-15T07:54:20.334Z,92860.28
2023-11-15T07:57:24.207Z,92849.19
2023-11-15T08:00:27.469Z,92869.88
2023-11-15T08:03:31.447Z,92876.66
2023-11-15T08:06:38.174Z,92885.03
2023-11-15T08:09:41.458Z,92895.25
2023-11-15T08:12:45.594Z,92892.75
2023-11-15T08:15:49.371Z,92900.69
2023-11-15T08:18:52.787Z,92914.69
2023-11-15T08:21:58.353Z,92927.41
2023-11-15T08:25:01.608Z,92927.66
2023-11-15T08:28:08.458Z,92923.38
2023-11-15T08:31:13.265Z,92923.00
2023-11-15T08:34:17.297Z,92933.53
2023-11-15T08:37:21.548Z,92927.34
2023-11-15T08:40:29.208Z,92925.72
2023-11-15T08:43:36.740Z,92931.00
2023-11-15T08:46:46.882Z,92930.09
2023-11-15T08:49:52.308Z,92926.06
2023-11-15T08:52:56.437Z,92941.19
2023-11-15T08:56:00.231Z,92952.66
2023-11-15T08:59:05.033Z,92956.81
2023-11-15T09:02:10.173Z,92942.88
2023-11-15T09:05:13.595Z,92947.19
2023-11-15T09:08:18.048Z,92964.47
2023-11-15T09:11:21.338Z,92963.81
2023-11-15T09:14:27.252Z,92946.22
2023-11-15T09:17:30.498Z,92956.84
2023-11-15T09:20:35.008Z,92956.13
2023-11-15T09:23:40.589Z,92964.41
2023-11-15T09:26:46.286Z,92961.00
2023-11-15T09:29:50.693Z,92971.19
2023-11-15T09:32:54.848Z,92972.34
2023-11-15T09:36:01.308Z,92979.31
2023-11-15T09:39:11.704Z,92977.97
2023-11-15T09:42:21.689Z,92981.56
2023-11-15T09:45:25.754Z,92971.69
2023-11-15T09:48:30.607Z,92974.91
2023-11-15T09:51:35.950Z,92983.69
2023-11-15T09:54:41.328Z,92983.25
2023-11-15T09:57:48.383Z,92988.31
2023-11-15T10:00:52.965Z,93002.06
2023-11-15T10:03:56.487Z,93013.34
2023-11-15T10:07:06.282Z,93011.22
2023-11-15T10:10:21.288Z,93012.53
2023-11-15T10:13:24.519Z,93020.66
2023-11-15T10:16:32.113Z,93032.72
2023-11-15T10:19:35.979Z,93033.41
2023-11-15T10:22:48.783Z,93032.81
2023-11-15T10:25:57.976Z,93039.41
2023-11-15T10:29:12.250Z,93037.97
2023-11-15T10:32:21.344Z,93038.53
2023-11-15T10:35:31.230Z,93051.88
2023-11-15T10:38:36.017Z,93051.09
2023-11-15T10:41:41.113Z,93036.75
2023-11-15T10:44:49.876Z,93036.75
2023-11-15T10:48:05.301Z,93037.91
2023-11-15T10:51:15.480Z,93033.81
2023-11-15T10:54:19.365Z,93036.97
2023-11-15T10:57:23.990Z,93052.66
2023-11-15T11:00:27.976Z,93062.84
2023-11-15T11:03:33.049Z,93067.72
2023-11-15T11:06:43.649Z,93090.97
2023-11-15T11:10:01.684Z,93086.34
2023-11-15T11:13:17.710Z,93087.09
2023-11-15T11:19:44.246Z,93110.28
2023-11-15T11:23:13.330Z,93120.09
2023-11-15T11:26:36.508Z,93111.97
2023-11-15T11:29:51.957Z,93122.16
2023-11-15T11:33:21.065Z,93114.47
2023-11-15T11:36:47.288Z,93115.69
2023-11-15T11:39:50.562Z,93112.94
2023-11-15T11:42:55.339Z,93109.72
2023-11-15T11:45:59.799Z,93120.72
2023-11-15T11:49:03.098Z,93103.03
2023-11-15T11:52:06.927Z,93104.84
2023-11-15T11:55:10.702Z,93106.53
2023-11-15T11:58:17.862Z,93107.13
2023-11-15T12:01:21.544Z,93119.06
2023-11-15T12:04:25.440Z,93117.81
2023-11-15T12:07:30.444Z,93119.69
2023-11-15T12:10:35.799Z,93116.56
2023-11-15T12:13:51.016Z,93129.50
2023-11-15T12:16:56.423Z,93128.16
2023-11-15T12:19:59.878Z,93137.75
2023-11-15T12:23:11.325Z,93140.22
2023-11-15T12:26:16.661Z,93137.38
2023-11-15T12:29:25.208Z,93144.41
2023-11-15T12:32:28.936Z,93141.84
2023-11-15T12:35:35.039Z,93136.72
2023-11-15T12:38:57.113Z,93141.31
2023-11-15T12:42:03.333Z,93148.91
2023-11-15T12:45:07.559Z,93159.34
2023-11-15T12:48:12.296Z,93156.56
2023-11-15T12:51:17.145Z,93142.84
2023-11-15T12:54:21.088Z,93134.84
2023-11-15T12:57:24.934Z,93139.66
2023-11-15T13:00:35.468Z,93148.28
2023-11-15T13:03:41.703Z,93156.69
2023-11-15T13:06:45.289Z,93165.47
2023-11-15T13:09:50.332Z,93170.50
2023-11-15T13:12:55.243Z,93167.94
2023-11-15T13:16:00.302Z,93160.78
2023-11-15T13:19:04.863Z,93157.34
2023-11-15T13:22:08.911Z,93165.28
2023-11-15T13:25:12.681Z,93171.94
2023-11-15T13:28:16.616Z,93179.66
2023-11-15T13:31:25.928Z,93172.09
2023-11-15T13:34:31.067Z,93179.22
2023-11-15T13:37:34.665Z,93175.09
2023-11-15T13:40:43.855Z,93188.31
2023-11-15T13:43:49.111Z,93179.16
2023-11-15T13:46:53.386Z,93176.59
2023-11-15T13:49:56.615Z,93181.78
2023-11-15T13:53:00.330Z,93191.41
2023-11-15T13:56:03.969Z,93190.41
2023-11-15T13:59:08.546Z,93177.81
2023-11-15T14:02:11.946Z,93156.47
2023-11-15T14:05:16.990Z,93167.56
2023-11-15T14:08:20.445Z,93168.97
2023-11-15T14:11:25.672Z,93162.81
2023-11-15T14:14:29.192Z,93161.09
2023-11-15T14:17:33.938Z,93156.31
2023-11-15T14:20:40.444Z,93157.66
2023-11-15T14:23:44.054Z,93161.97
2023-11-15T14:26:47.275Z,93159.84
2023-11-15T14:29:50.886Z,93154.91
2023-11-15T14:32:54.561Z,93158.44
2023-11-15T14:35:58.212Z,93158.06
2023-11-15T14:39:01.875Z,93153.94
2023-11-15T14:42:08.193Z,93149.38
2023-11-15T14:45:14.214Z,93150.34
2023-11-15T14:48:17.705Z,93143.53
2023-11-15T14:51:24.062Z,93146.50
2023-11-15T14:54:31.760Z,93146.13
2023-11-15T14:57:40.816Z,93143.31
2023-11-15T15:00:43.997Z,93141.75
2023-11-15T15:03:50.248Z,93147.16
2023-11-15T15:06:53.632Z,93137.22
2023-11-15T15:09:57.150Z,93133.09
2023-11-15T15:13:00.430Z,93122.50
2023-11-15T15:16:05.774Z,93121.03
2023-11-15T15:19:11.889Z,93125.91
2023-11-15T15:22:15.300Z,93120.00
2023-11-15T15:25:18.652Z,93115.97
2023-11-15T15:28:21.952Z,93109.28
2023-11-15T15:31:25.334Z,93109.16
2023-11-15T15:34:28.620Z,93109.03
2023-11-15T15:37:32.389Z,93107.44
2023-11-15T15:40:40.263Z,93101.41
2023-11-15T15:43:45.346Z,93100.38
2023-11-15T15:46:48.629Z,93105.72
2023-11-15T15:49:53.850Z,93109.91
2023-11-15T15:53:00.629Z,93121.03
2023-11-15T15:56:06.543Z,93119.44
2023-11-15T15:59:10.150Z,93107.78
2023-11-15T16:02:13.460Z,93102.53
2023-11-15T16:05:19.745Z,93098.66
2023-11-15T16:08:22.953Z,93093.97
2023-11-15T16:11:27.484Z,93067.56
2023-11-15T16:14:31.037Z,93081.41
2023-11-15T16:17:37.169Z,93092.53
2023-11-15T16:20:40.703Z,93096.41
2023-11-15T16:23:43.921Z,93103.78
2023-11-15T16:26:47.240Z,93104.88
2023-11-15T16:29:50.922Z,93094.53
2023-11-15T16:32:55.113Z,93091.72
2023-11-15T16:35:58.444Z,93091.59
2023-11-15T16:39:01.724Z,93093.88
2023-11-15T16:42:05.657Z,93093.63
2023-11-15T16:45:10.261Z,93085.69
2023-11-15T16:48:13.730Z,93072.72
2023-11-15T16:51:16.946Z,93054.38
2023-11-15T16:54:20.842Z,93036.78
2023-11-15T16:57:24.244Z,93040.16
2023-11-15T17:00:27.998Z,93041.63
2023-11-15T17:03:31.476Z,93033.84
2023-11-15T17:06:41.143Z,93047.25
2023-11-15T17:09:45.331Z,93047.13
2023-11-15T17:12:49.387Z,93046.31
2023-11-15T17:15:53.129Z,93058.78
2023-11-15T17:18:56.609Z,93054.22
2023-11-15T17:22:00.022Z,93060.50
2023-11-15T17:25:11.910Z,93052.50
2023-11-15T17:28:22.194Z,93050.63
2023-11-15T17:31:26.612Z,93048.59
2023-11-15T17:34:29.692Z,93045.53
2023-11-15T17:37:33.287Z,93045.91
2023-11-15T17:40:36.882Z,93038.78
2023-11-15T17:43:40.080Z,93029.72
2023-11-15T17:46:44.309Z,93051.03
2023-11-15T17:49:48.367Z,93047.13
2023-11-15T17:52:51.795Z,93042.72
2023-11-15T17:55:55.142Z,93039.47
2023-11-15T17:58:58.416Z,93046.06
2023-11-15T18:02:01.722Z,93032.25
2023-11-15T18:05:05.341Z,93042.97
2023-11-15T18:08:08.898Z,93047.00
2023-11-15T18:11:12.363Z,93053.16
2023-11-15T18:14:15.801Z,93059.03
2023-11-15T18:17:19.117Z,93060.53
2023-11-15T18:20:23.082Z,93052.22
2023-11-15T18:23:26.789Z,93052.34
2023-11-15T18:26:31.809Z,93055.03
2023-11-15T18:29:36.100Z,93055.81
2023-11-15T18:32:39.559Z,93058.34
2023-11-15T18:35:44.689Z,93055.16
2023-11-15T18:38:50.960Z,93055.81
2023-11-15T18:41:55.517Z,93058.78
2023-11-15T18:44:59.506Z,93050.72
2023-11-15T18:48:02.838Z,93055.38
2023-11-15T18:51:06.387Z,93050.31
2023-11-15T18:54:10.658Z,93052.31
2023-11-15T18:57:14.030Z,93058.97
2023-11-15T19:00:20.110Z,93060.31
2023-11-15T19:03:23.574Z,93061.94
2023-11-15T19:06:28.289Z,93069.16
2023-11-15T19:09:38.439Z,93067.53
2023-11-15T19:12:42.687Z,93069.25
2023-11-15T19:15:47.119Z,93073.97
2023-11-15T19:18:52.979Z,93075.16
2023-11-15T19:21:56.360Z,93073.13
2023-11-15T19:25:00.465Z,93070.91
2023-11-15T19:28:04.636Z,93067.81
2023-11-15T19:31:08.008Z,93063.13
2023-11-15T19:34:11.807Z,93075.97
2023-11-15T19:37:15.263Z,93084.41
2023-11-15T19:40:20.970Z,93074.91
2023-11-15T19:43:24.387Z,93074.81
2023-11-15T19:46:27.778Z,93081.50
2023-11-15T19:49:31.797Z,93089.41
2023-11-15T19:52:36.223Z,93093.03
2023-11-15T19:55:40.652Z,93093.84
2023-11-15T19:58:54.416Z,93083.66
2023-11-15T20:01:57.773Z,93075.91
2023-11-15T20:05:01.074Z,93083.66
2023-11-15T20:08:04.387Z,93091.84
2023-11-15T20:11:12.701Z,93089.03
2023-11-15T20:14:16.061Z,93075.91
2023-11-15T20:17:19.278Z,93081.53
2023-11-15T20:20:25.007Z,93080.47
2023-11-15T20:23:28.407Z,93089.84
2023-11-15T20:26:31.588Z,93090.75
2023-11-15T20:29:34.866Z,93087.00
2023-11-15T20:32:38.171Z,93089.25
2023-11-15T20:35:41.354Z,93091.53
2023-11-15T20:38:45.519Z,93090.19
2023-11-15T20:41:48.791Z,93076.91
2023-11-15T20:44:51.976Z,93079.06
2023-11-15T20:47:55.696Z,93077.97
2023-11-15T20:50:59.132Z,93073.78
2023-11-15T20:54:02.438Z,93077.94
2023-11-15T20:57:06.313Z,93090.88
2023-11-15T21:00:18.279Z,93084.84
2023-11-15T21:03:21.842Z,93080.31
2023-11-15T21:06:25.714Z,93093.38
2023-11-15T21:09:29.037Z,93091.63
2023-11-15T21:12:32.976Z,93093.38
2023-11-15T21:15:36.941Z,93105.94
2023-11-15T21:18:42.140Z,93117.69
2023-11-15T21:21:50.479Z,93115.22
2023-11-15T21:24:54.044Z,93118.69
2023-11-15T21:27:57.358Z,93107.84
2023-11-15T21:31:00.588Z,93101.44
2023-11-15T21:34:09.397Z,93102.63
2023-11-15T21:37:18.460Z,93101.53
2023-11-15T21:40:22.360Z,93115.28
2023-11-15T21:43:25.823Z,93119.25
2023-11-15T21:46:32.879Z,93119.63
2023-11-15T21:49:36.133Z,93115.75
2023-11-15T21:52:39.449Z,93104.22
2023-11-15T21:55:42.812Z,93094.22
2023-11-15T21:58:46.097Z,93100.75
2023-11-15T22:01:49.417Z,93109.41
2023-11-15T22:04:53.738Z,93111.00
2023-11-15T22:07:56.903Z,93117.78
2023-11-15T22:11:00.787Z,93135.38
2023-11-15T22:14:04.050Z,93142.28
2023-11-15T22:17:07.418Z,93152.13
2023-11-15T22:20:14.326Z,93160.25
2023-11-15T22:23:17.655Z,93158.09
2023-11-15T22:26:20.911Z,93155.56
2023-11-15T22:29:24.885Z,93162.31
2023-11-15T22:32:29.358Z,93165.94
2023-11-15T22:35:32.659Z,93175.25
2023-11-15T22:38:35.936Z,93169.34
2023-11-15T22:41:39.129Z,93179.34
2023-11-15T22:44:42.551Z,93182.94
2023-11-15T22:47:45.875Z,93186.00
2023-11-15T22:50:49.149Z,93185.31
2023-11-15T22:53:52.548Z,93183.94
2023-11-15T22:56:55.774Z,93176.22
2023-11-15T22:59:59.349Z,93185.00
2023-11-15T23:03:11.682Z,93189.41
2023-11-15T23:06:16.106Z,93181.13
2023-11-15T23:09:22.106Z,93179.25
2023-11-15T23:12:26.018Z,93172.16
2023-11-15T23:15:30.215Z,93173.38
2023-11-15T23:18:33.795Z,93184.72
2023-11-15T23:21:38.453Z,93183.19
2023-11-15T23:24:44.418Z,93175.44
2023-11-15T23:27:48.869Z,93172.75
2023-11-15T23:30:57.356Z,93194.41
2023-11-15T23:34:01.131Z,93195.41
2023-11-15T23:37:04.713Z,93198.78
2023-11-15T23:40:13.505Z,93193.34
2023-11-15T23:43:18.649Z,93200.44
2023-11-15T23:46:22.953Z,93205.34
2023-11-15T23:49:25.792Z,93220.06
2023-11-15T23:52:29.421Z,93232.25
2023-11-15T23:55:32.803Z,93220.72
2023-11-15T23:58:36.170Z,93220.06
